Time;durP1;ratioP1;P1;durP2;ratioP2;P2;SDS_P1;SDS_P2;PMS_P1;PMS_P2;Temp;Humidity;BMP_temperature;BMP_pressure;BME280_temperature;BME280_humidity;BME280_pressure;Samples;Min_cycle;Max_cycle;Signal;HPM_P1;HPM_P2
2023/08/19 04:30:47;;;;;;;;;13.00;11.00;;;;;34.96;37.56;100842.56;5694487;23;46561;-65
2023/08/19 04:33:12;;;;;;;;;12.25;11.00;;;;;34.81;37.48;100837.31;4905370;28;45334;-72
2023/08/19 04:35:38;;;;;;;;;11.25;11.25;;;;;34.77;37.55;100841.66;4902567;28;46230;-71
2023/08/19 04:38:03;;;;;;;;;10.75;10.75;;;;;34.81;37.08;100845.69;4902274;28;46046;-72
2023/08/19 04:40:30;;;;;;;;;6.50;6.50;;;;;34.66;37.74;100849.84;4902837;29;45378;-72
2023/08/19 04:42:57;;;;;;;;;10.00;7.75;;;;;34.56;37.23;100855.91;4902562;28;45335;-71
2023/08/19 04:45:22;;;;;;;;;9.50;9.50;;;;;34.59;37.60;100860.19;4902467;28;45380;-73
2023/08/19 04:47:48;;;;;;;;;10.50;7.50;;;;;34.68;37.50;100851.34;4902169;28;45544;-72
2023/08/19 04:50:13;;;;;;;;;9.75;9.75;;;;;34.55;37.25;100865.34;4902484;28;45256;-71
2023/08/19 04:52:38;;;;;;;;;9.00;7.75;;;;;34.55;37.07;100868.97;4902128;29;50171;-71
2023/08/19 04:55:04;;;;;;;;;8.50;8.25;;;;;34.62;37.34;100866.16;4902397;28;45196;-65
2023/08/19 04:57:30;;;;;;;;;8.25;7.00;;;;;34.56;37.05;100872.63;4902252;28;45307;-64
2023/08/19 04:59:55;;;;;;;;;8.25;6.75;;;;;34.55;37.20;100870.91;4902474;29;45261;-64
2023/08/19 05:02:20;;;;;;;;;6.75;6.00;;;;;34.58;37.14;100883.53;4902404;28;45207;-64
2023/08/19 05:04:46;;;;;;;;;8.00;8.00;;;;;34.71;36.82;100880.69;4901754;29;48068;-64
2023/08/19 05:07:11;;;;;;;;;6.75;6.00;;;;;34.59;36.86;100877.75;4902234;28;46141;-65
2023/08/19 05:09:36;;;;;;;;;8.50;8.50;;;;;34.61;36.74;100889.53;4901990;29;46526;-65
2023/08/19 05:12:02;;;;;;;;;8.25;8.00;;;;;34.67;36.67;100896.13;4901947;28;48640;-63
2023/08/19 05:14:27;;;;;;;;;11.25;8.25;;;;;34.69;36.92;100891.19;4902309;28;45588;-64
2023/08/19 05:16:52;;;;;;;;;6.75;5.75;;;;;34.74;36.70;100895.03;4901943;29;50416;-64
2023/08/19 05:19:19;;;;;;;;;6.25;5.25;;;;;34.79;36.80;100897.97;4901846;29;45483;-65
2023/08/19 05:21:46;;;;;;;;;7.00;6.00;;;;;34.83;36.34;100901.16;4918320;28;45320;-64
2023/08/19 05:24:12;;;;;;;;;6.75;6.75;;;;;34.79;36.52;100897.97;4924328;28;46245;-65
2023/08/19 05:26:39;;;;;;;;;6.50;6.50;;;;;34.77;36.65;100908.50;4925041;28;47493;-65
2023/08/19 05:29:04;;;;;;;;;6.00;6.00;;;;;34.78;36.45;100899.06;4904139;29;45248;-65
2023/08/19 05:31:30;;;;;;;;;8.00;6.00;;;;;34.81;36.51;100909.75;4905311;29;45153;-66
2023/08/19 05:33:55;;;;;;;;;7.00;7.00;;;;;34.73;36.82;100907.25;4905042;28;45614;-65
2023/08/19 05:36:20;;;;;;;;;9.00;6.50;;;;;34.73;36.70;100906.34;4905147;28;46071;-66
2023/08/19 05:38:46;;;;;;;;;8.50;8.50;;;;;34.76;36.62;100922.66;4905275;29;45244;-64
2023/08/19 05:41:11;;;;;;;;;6.00;6.00;;;;;34.72;36.44;100930.56;4905360;28;45363;-67
2023/08/19 05:43:37;;;;;;;;;6.75;6.75;;;;;34.73;36.71;100928.63;4905171;28;45343;-66
2023/08/19 05:46:06;;;;;;;;;5.00;5.00;;;;;34.87;36.82;100919.16;4905084;28;45709;-66
2023/08/19 05:48:32;;;;;;;;;5.25;5.25;;;;;34.78;36.57;100923.28;4904747;28;45375;-66
2023/08/19 05:50:57;;;;;;;;;7.00;7.00;;;;;34.80;36.91;100932.25;4905149;28;45485;-65
2023/08/19 05:53:23;;;;;;;;;5.25;5.25;;;;;34.90;36.41;100927.91;4905130;28;45486;-65
2023/08/19 05:55:48;;;;;;;;;8.75;6.50;;;;;34.89;36.70;100920.63;4904921;28;45308;-66
2023/08/19 05:58:15;;;;;;;;;7.00;5.50;;;;;34.95;36.75;100929.19;4904653;28;45296;-66
2023/08/19 06:00:40;;;;;;;;;5.50;5.50;;;;;34.77;36.64;100922.44;4905044;28;45226;-63
2023/08/19 06:03:06;;;;;;;;;6.75;6.50;;;;;34.81;36.48;100933.97;4904616;28;45363;-65
2023/08/19 06:05:31;;;;;;;;;5.00;5.00;;;;;34.73;36.80;100934.19;4904674;28;46165;-65
2023/08/19 06:07:57;;;;;;;;;5.50;4.00;;;;;34.80;36.53;100944.25;4920272;28;45406;-64
2023/08/19 06:10:23;;;;;;;;;5.00;5.00;;;;;34.75;36.36;100934.88;4905142;28;45438;-65
2023/08/19 06:12:48;;;;;;;;;4.00;2.00;;;;;34.84;36.56;100942.75;4904771;28;45329;-64
2023/08/19 06:15:13;;;;;;;;;6.00;6.00;;;;;34.77;36.42;100947.50;4904252;29;59464;-66
2023/08/19 06:17:38;;;;;;;;;4.75;4.75;;;;;34.85;36.33;100965.88;4904861;29;45325;-64
2023/08/19 06:20:05;;;;;;;;;5.25;5.00;;;;;34.89;36.38;100965.19;4905431;28;51935;-64
2023/08/19 06:22:30;;;;;;;;;5.00;5.00;;;;;34.85;36.78;100966.75;4923802;28;45471;-64
2023/08/19 06:24:55;;;;;;;;;5.00;5.00;;;;;34.86;36.21;100971.25;4923145;28;45390;-65
2023/08/19 06:27:21;;;;;;;;;4.75;3.00;;;;;34.70;36.35;100977.31;4924346;28;46008;-65
2023/08/19 06:29:46;;;;;;;;;4.75;4.75;;;;;34.59;36.54;100988.28;4909059;28;50274;-66
2023/08/19 06:32:12;;;;;;;;;5.25;5.00;;;;;34.60;36.65;100998.34;4904221;28;48906;-65
2023/08/19 06:34:37;;;;;;;;;6.50;6.50;;;;;34.50;36.78;101010.81;4903510;28;46285;-65
2023/08/19 06:37:03;;;;;;;;;8.50;5.50;;;;;34.40;36.94;101007.63;4904350;29;45286;-64
2023/08/19 06:39:32;;;;;;;;;4.00;4.00;;;;;34.31;37.50;101014.50;4904427;28;45348;-64
2023/08/19 06:42:02;;;;;;;;;3.25;3.25;;;;;34.30;36.91;101017.50;4904223;28;45506;-65
2023/08/19 06:44:29;;;;;;;;;7.25;5.50;;;;;34.24;37.34;101026.75;4903750;28;46368;-66
2023/08/19 06:46:56;;;;;;;;;5.00;5.00;;;;;34.21;37.51;101021.56;4904278;28;45254;-65
2023/08/19 06:49:21;;;;;;;;;7.50;4.75;;;;;34.24;37.30;101010.91;4903941;28;45458;-65
2023/08/19 06:51:47;;;;;;;;;5.50;5.50;;;;;34.04;37.84;101029.53;4904135;28;45508;-65
2023/08/19 06:54:13;;;;;;;;;5.75;5.75;;;;;34.03;38.00;101019.47;4904093;28;46248;-65
2023/08/19 06:56:46;;;;;;;;;5.75;5.75;;;;;34.14;37.81;101039.16;4904017;28;45384;-65
2023/08/19 06:59:19;;;;;;;;;5.00;5.00;;;;;34.12;37.74;101043.22;4904051;28;45289;-65
2023/08/19 07:01:51;;;;;;;;;6.75;6.00;;;;;34.04;37.44;101038.75;4910843;28;45351;-64
2023/08/19 07:04:27;;;;;;;;;5.25;5.25;;;;;34.11;37.85;101033.19;4901719;29;46180;-65
2023/08/19 07:06:56;;;;;;;;;9.00;5.00;;;;;34.11;37.84;101056.28;4903719;28;45352;-65
2023/08/19 07:09:23;;;;;;;;;5.00;5.00;;;;;34.04;38.22;101052.66;4904154;28;45258;-66
2023/08/19 07:11:50;;;;;;;;;3.75;3.75;;;;;34.05;38.29;101053.50;4903708;28;45527;-64
2023/08/19 07:14:15;;;;;;;;;5.00;5.00;;;;;34.02;38.09;101051.19;4903587;28;47471;-64
2023/08/19 07:16:41;;;;;;;;;4.50;4.50;;;;;34.12;38.27;101046.84;4903421;28;45438;-65
2023/08/19 07:19:11;;;;;;;;;6.75;5.25;;;;;34.27;38.05;101040.25;4903782;28;45253;-65
2023/08/19 07:21:38;;;;;;;;;4.25;4.25;;;;;34.21;38.04;101041.91;4917514;28;45224;-66
2023/08/19 07:24:04;;;;;;;;;5.00;4.00;;;;;34.04;37.68;101035.09;4922349;28;45390;-66
2023/08/19 07:26:30;;;;;;;;;3.75;3.75;;;;;34.00;37.94;101043.03;4922518;28;45284;-64
2023/08/19 07:28:56;;;;;;;;;3.75;3.00;;;;;34.15;37.69;101048.34;4924559;28;45407;-65
2023/08/19 07:31:22;;;;;;;;;3.00;3.00;;;;;34.27;37.28;101056.94;4903126;28;45336;-65
2023/08/19 07:33:48;;;;;;;;;3.00;3.00;;;;;34.03;37.82;101055.66;4903248;29;46282;-65
2023/08/19 07:36:13;;;;;;;;;4.25;2.75;;;;;33.79;38.21;101071.94;4903475;28;45378;-65
2023/08/19 07:38:38;;;;;;;;;3.75;3.75;;;;;33.71;38.12;101087.94;4903821;28;45220;-64
2023/08/19 07:41:04;;;;;;;;;4.00;4.00;;;;;33.88;38.29;101110.66;4903303;28;45189;-65
2023/08/19 07:43:29;;;;;;;;;3.75;3.75;;;;;33.84;38.16;101101.06;4903388;29;45512;-65
2023/08/19 07:45:54;;;;;;;;;2.25;2.25;;;;;33.66;38.34;101082.19;4901642;29;60815;-65
2023/08/19 07:48:20;;;;;;;;;2.50;2.25;;;;;33.69;38.16;101078.97;4903191;28;45229;-66
2023/08/19 07:50:45;;;;;;;;;3.25;3.25;;;;;33.63;38.34;101091.81;4909281;28;46018;-65
2023/08/19 07:53:12;;;;;;;;;5.25;4.75;;;;;33.51;38.86;101101.00;4903484;28;45252;-66
2023/08/19 07:55:38;;;;;;;;;4.00;4.00;;;;;33.49;38.84;101117.03;4903028;28;45503;-65
2023/08/19 07:58:03;;;;;;;;;3.50;3.00;;;;;33.47;38.30;101121.94;4902392;28;45294;-65
2023/08/19 08:00:28;;;;;;;;;3.00;3.00;;;;;33.34;38.99;101142.22;4901384;29;50071;-66
2023/08/19 08:02:54;;;;;;;;;4.00;4.00;;;;;33.43;38.60;101144.59;4902920;28;45978;-66
2023/08/19 08:05:19;;;;;;;;;4.75;3.25;;;;;33.46;38.62;101134.13;4902409;28;45280;-65
2023/08/19 08:07:44;;;;;;;;;3.00;3.00;;;;;33.61;38.14;101138.41;4903312;29;45562;-71
2023/08/19 08:10:10;;;;;;;;;4.00;4.00;;;;;33.60;38.82;101158.94;4902858;28;45329;-74
2023/08/19 08:12:35;;;;;;;;;4.00;4.00;;;;;33.61;39.03;101174.56;4914835;28;46169;-73
2023/08/19 08:15:01;;;;;;;;;4.00;4.00;;;;;33.45;38.84;101205.53;4918380;28;45316;-73
2023/08/19 08:17:26;;;;;;;;;1.50;1.50;;;;;33.41;39.33;101224.59;4914265;28;45500;-70
2023/08/19 08:19:51;;;;;;;;;4.00;4.00;;;;;33.37;39.17;101234.38;4919296;28;45679;-75
2023/08/19 08:22:17;;;;;;;;;4.25;4.00;;;;;33.30;40.40;101244.63;4921945;28;46026;-71
2023/08/19 08:24:42;;;;;;;;;5.75;4.00;;;;;33.24;39.73;101205.69;4921820;28;45290;-70
2023/08/19 08:27:08;;;;;;;;;3.25;3.25;;;;;33.29;40.88;101222.59;4920441;28;45268;-74
2023/08/19 08:29:34;;;;;;;;;4.50;4.50;;;;;33.27;41.01;101236.69;4921030;28;45228;-72
2023/08/19 08:31:59;;;;;;;;;5.25;4.00;;;;;33.32;40.67;101202.72;4920119;28;46384;-70
2023/08/19 08:34:25;;;;;;;;;4.00;4.00;;;;;33.27;40.65;101203.34;4912682;28;52018;-72
2023/08/19 08:36:51;;;;;;;;;4.00;4.00;;;;;33.24;40.82;101202.91;4902776;28;45308;-69
2023/08/19 08:39:16;;;;;;;;;5.00;4.25;;;;;33.18;41.22;101210.09;4908992;28;50442;-70
2023/08/19 08:41:44;;;;;;;;;4.25;4.25;;;;;33.08;41.32;101211.56;4902809;28;47172;-70
2023/08/19 08:44:10;;;;;;;;;3.25;3.25;;;;;33.18;41.59;101195.34;4888485;28;45640;-68
2023/08/19 08:46:37;;;;;;;;;4.00;4.00;;;;;33.29;41.32;101212.31;4912665;28;45531;-69
2023/08/19 08:49:04;;;;;;;;;3.75;3.75;;;;;33.21;41.22;101228.28;4919213;28;45479;-71
2023/08/19 08:51:29;;;;;;;;;4.00;4.00;;;;;33.20;41.47;101243.25;4920244;28;45370;-73
2023/08/19 08:53:56;;;;;;;;;4.00;4.00;;;;;33.17;42.15;101238.97;4931742;28;45406;-74
2023/08/19 08:56:22;;;;;;;;;7.00;5.00;;;;;33.19;41.76;101228.50;4900733;28;45385;-73
2023/08/19 08:58:48;;;;;;;;;5.00;5.00;;;;;33.31;42.18;101203.78;4917843;28;45542;-76
2023/08/19 09:01:16;;;;;;;;;5.00;5.00;;;;;33.27;41.87;101196.91;4902002;29;46266;-76
2023/08/19 09:03:42;;;;;;;;;6.25;5.00;;;;;33.64;41.47;101193.63;4901619;28;45356;-74
2023/08/19 09:06:14;;;;;;;;;4.25;4.25;;;;;33.81;41.22;101258.09;4904116;28;45466;-74
2023/08/19 09:08:50;;;;;;;;;4.75;3.00;;;;;33.83;41.35;101230.94;4901919;28;45380;-71
2023/08/19 09:11:21;;;;;;;;;4.25;4.25;;;;;33.86;40.66;101207.41;4906978;28;46311;-69
2023/08/19 09:13:51;;;;;;;;;3.00;3.00;;;;;33.82;40.79;101239.47;4905010;28;45373;-68
2023/08/19 09:16:16;;;;;;;;;4.50;3.75;;;;;33.73;41.05;101273.06;4914369;28;45405;-69
2023/08/19 09:18:42;;;;;;;;;3.50;3.50;;;;;33.60;41.27;101277.69;4910063;28;45462;-70
2023/08/19 09:21:08;;;;;;;;;2.75;2.75;;;;;33.56;40.99;101263.34;4920712;28;46376;-69
2023/08/19 09:23:33;;;;;;;;;4.50;2.75;;;;;33.49;41.19;101276.34;4904541;28;45343;-71
2023/08/19 09:25:59;;;;;;;;;3.00;3.00;;;;;33.49;42.18;101303.31;4901816;29;45358;-76
2023/08/19 09:28:24;;;;;;;;;2.75;2.75;;;;;33.40;42.11;101306.25;4914294;28;45377;-73
2023/08/19 09:30:50;;;;;;;;;4.00;4.00;;;;;33.32;42.72;101316.69;4901530;28;45289;-69
2023/08/19 09:33:22;;;;;;;;;2.75;2.75;;;;;33.23;42.87;101310.44;4900945;28;45446;-69
2023/08/19 09:36:01;;;;;;;;;3.75;3.75;;;;;33.27;42.88;101333.09;4901836;28;45300;-70
2023/08/19 09:38:26;;;;;;;;;5.25;5.25;;;;;33.13;43.03;101351.59;4901500;28;45278;-68
2023/08/19 09:41:08;;;;;;;;;9.75;5.00;;;;;33.09;43.59;101324.44;4901361;29;46110;-71
2023/08/19 09:43:37;;;;;;;;;4.50;4.50;;;;;32.77;43.69;101303.66;4909228;28;45337;-73
2023/08/19 09:46:03;;;;;;;;;2.75;2.75;;;;;32.81;43.76;101307.78;4920676;28;45422;-69
2023/08/19 09:48:28;;;;;;;;;3.75;3.75;;;;;32.56;43.58;101310.09;4910581;28;45485;-67
2023/08/19 09:50:53;;;;;;;;;6.25;6.25;;;;;32.62;44.68;101335.13;4913737;28;47583;-66
2023/08/19 09:53:19;;;;;;;;;6.75;5.50;;;;;32.61;44.99;101363.09;4916395;28;45548;-73
2023/08/19 09:55:46;;;;;;;;;6.00;4.75;;;;;32.47;44.90;101353.78;4918216;28;45425;-69
2023/08/19 09:58:12;;;;;;;;;7.50;5.50;;;;;32.42;45.32;101364.63;4908727;28;45478;-70
2023/08/19 10:00:38;;;;;;;;;5.75;5.75;;;;;32.44;45.60;101354.19;4910866;28;45366;-68
2023/08/19 10:03:05;;;;;;;;;4.50;4.50;;;;;32.36;45.19;101354.31;4914784;28;45648;-69
2023/08/19 10:05:34;;;;;;;;;4.75;4.75;;;;;32.43;45.59;101335.81;4903976;28;45367;-69
2023/08/19 10:08:03;;;;;;;;;4.00;4.00;;;;;32.43;44.97;101335.81;4907095;28;45442;-69
2023/08/19 10:10:30;;;;;;;;;5.50;5.50;;;;;32.43;45.98;101318.28;4915712;28;46398;-68
2023/08/19 10:12:57;;;;;;;;;7.75;6.00;;;;;32.54;45.75;101309.44;4920214;28;45208;-68
2023/08/19 10:15:26;;;;;;;;;6.25;4.75;;;;;32.47;45.34;101344.59;4908244;28;45592;-69
2023/08/19 10:17:55;;;;;;;;;7.75;3.75;;;;;32.48;45.79;101354.66;4904175;29;45369;-70
2023/08/19 10:20:25;;;;;;;;;5.50;5.50;;;;;32.63;45.00;101336.84;4919023;28;46420;-69
2023/08/19 10:22:56;;;;;;;;;4.75;4.75;;;;;32.65;45.19;101351.41;4923364;28;45310;-71
2023/08/19 10:25:23;;;;;;;;;6.00;6.00;;;;;32.94;44.70;101333.72;4923493;28;45378;-70
2023/08/19 10:27:49;;;;;;;;;11.75;6.00;;;;;33.11;43.96;101344.50;4924364;28;45552;-62
2023/08/19 10:30:23;;;;;;;;;4.75;4.75;;;;;33.06;44.26;101348.78;4919955;28;46346;-63
2023/08/19 10:32:49;;;;;;;;;7.00;6.50;;;;;33.08;44.41;101361.59;4904791;28;45497;-67
2023/08/19 10:35:16;;;;;;;;;4.75;4.75;;;;;32.92;44.26;101357.22;4922867;28;45813;-60
2023/08/19 10:37:43;;;;;;;;;5.50;5.50;;;;;32.94;44.79;101360.63;4909667;28;45279;-58
2023/08/19 10:40:14;;;;;;;;;4.00;4.00;;;;;32.97;44.42;101338.88;4904261;28;46366;-58
2023/08/19 10:42:40;;;;;;;;;7.00;5.50;;;;;33.05;43.93;101363.72;4903990;28;45271;-57
2023/08/19 10:45:17;;;;;;;;;6.50;3.50;;;;;33.12;43.24;101371.25;4904166;28;45446;-59
2023/08/19 10:47:43;;;;;;;;;5.00;3.75;;;;;33.04;43.26;101355.59;4903662;28;45365;-60
2023/08/19 10:50:10;;;;;;;;;6.00;3.50;;;;;33.02;42.71;101352.16;4903894;29;45222;-59
2023/08/19 10:52:58;;;;;;;;;5.00;5.00;;;;;33.23;43.11;101348.50;4903681;28;45289;-60
2023/08/19 10:55:24;;;;;;;;;6.00;4.25;;;;;33.33;42.74;101352.63;4903971;28;45331;-59
2023/08/19 10:57:50;;;;;;;;;3.50;3.50;;;;;33.48;41.58;101348.84;4903906;29;45344;-60
2023/08/19 11:00:15;;;;;;;;;3.75;3.75;;;;;33.54;41.99;101357.22;4903841;29;45339;-59
2023/08/19 11:02:41;;;;;;;;;1.50;1.50;;;;;33.49;40.10;101354.22;4903400;28;45327;-59
2023/08/19 11:05:07;;;;;;;;;4.50;4.50;;;;;33.72;40.89;101359.44;4903837;29;45352;-60
2023/08/19 11:07:33;;;;;;;;;4.00;4.00;;;;;33.56;40.45;101354.22;4903744;28;45290;-60
2023/08/19 11:09:58;;;;;;;;;6.75;3.50;;;;;33.55;40.64;101349.72;4903851;28;46176;-59
2023/08/19 11:12:28;;;;;;;;;3.00;3.00;;;;;33.68;40.40;101352.59;4903613;28;45339;-60
2023/08/19 11:14:56;;;;;;;;;3.00;3.00;;;;;33.80;39.30;101362.94;4918580;28;45323;-59
2023/08/19 11:17:30;;;;;;;;;2.25;2.25;;;;;33.64;39.39;101363.25;4908470;28;45836;-59
2023/08/19 11:19:57;;;;;;;;;2.00;2.00;;;;;33.40;39.06;101355.44;4908630;28;46671;-63
2023/08/19 11:22:23;;;;;;;;;1.25;1.25;;;;;33.43;39.23;101358.66;4922311;28;45332;-59
2023/08/19 11:24:50;;;;;;;;;1.50;1.50;;;;;33.65;39.25;101369.69;4921884;28;45523;-59
2023/08/19 11:27:17;;;;;;;;;2.00;2.00;;;;;33.63;38.65;101372.66;4922945;28;45429;-73
2023/08/19 11:29:44;;;;;;;;;0.00;0.00;;;;;33.57;38.34;101367.94;4908890;28;46396;-59
2023/08/19 11:32:17;;;;;;;;;2.00;2.00;;;;;33.66;38.53;101350.03;4903195;28;45566;-60
2023/08/19 11:34:42;;;;;;;;;3.00;1.00;;;;;33.73;37.61;101352.84;4903117;28;45381;-58
2023/08/19 11:37:08;;;;;;;;;0.75;0.75;;;;;33.76;37.47;101352.44;4903026;29;58729;-59
2023/08/19 11:39:33;;;;;;;;;1.50;1.50;;;;;33.58;37.82;101354.91;4902806;28;61686;-60
2023/08/19 11:42:02;;;;;;;;;1.75;1.75;;;;;33.74;37.64;101332.31;4903279;28;45336;-61
2023/08/19 11:44:28;;;;;;;;;1.00;1.00;;;;;33.96;37.87;101342.25;4902078;28;45377;-65
2023/08/19 11:46:56;;;;;;;;;3.50;2.00;;;;;34.06;37.48;101356.63;4903277;28;45339;-65
2023/08/19 11:49:22;;;;;;;;;2.00;2.00;;;;;34.08;37.53;101350.84;4902637;28;47307;-59
2023/08/19 11:51:47;;;;;;;;;1.50;1.25;;;;;33.98;37.21;101359.59;4903008;28;45329;-60
2023/08/19 11:54:13;;;;;;;;;1.00;1.00;;;;;33.93;37.32;101351.03;4903213;29;45533;-59
2023/08/19 11:56:53;;;;;;;;;1.50;1.50;;;;;33.97;37.11;101363.44;4903383;28;45486;-58
2023/08/19 11:59:28;;;;;;;;;1.50;1.50;;;;;34.03;37.10;101358.94;4902275;28;45296;-59
2023/08/19 12:01:53;;;;;;;;;1.00;1.00;;;;;33.97;37.18;101370.91;4902023;28;45346;-58
2023/08/19 12:04:18;;;;;;;;;2.00;2.00;;;;;33.85;37.28;101380.94;4902244;29;45485;-59
2023/08/19 12:06:46;;;;;;;;;2.25;2.25;;;;;34.03;37.59;101376.50;4903009;29;45280;-58
2023/08/19 12:09:12;;;;;;;;;1.00;1.00;;;;;33.99;36.80;101377.13;4902686;29;45577;-59
2023/08/19 12:11:38;;;;;;;;;1.00;1.00;;;;;33.99;37.50;101372.44;4902871;28;45271;-59
2023/08/19 12:14:05;;;;;;;;;1.00;1.00;;;;;34.18;37.29;101366.09;4902672;28;45682;-59
2023/08/19 12:16:30;;;;;;;;;1.75;1.75;;;;;34.24;36.88;101372.75;4902962;28;45455;-59
2023/08/19 12:18:57;;;;;;;;;3.00;1.25;;;;;34.34;37.34;101364.00;4902181;28;45349;-59
2023/08/19 12:21:23;;;;;;;;;1.00;1.00;;;;;34.43;36.80;101362.75;4915100;28;45383;-58
2023/08/19 12:23:48;;;;;;;;;2.75;1.50;;;;;34.60;36.74;101369.63;4921661;28;45413;-59
2023/08/19 12:26:13;;;;;;;;;1.00;1.00;;;;;34.62;36.56;101370.28;4921694;28;46190;-58
2023/08/19 12:28:39;;;;;;;;;1.00;1.00;;;;;34.67;36.61;101377.97;4917276;28;46432;-59
2023/08/19 12:31:04;;;;;;;;;1.75;0.50;;;;;34.61;36.39;101381.63;4901957;29;45451;-59
2023/08/19 12:33:29;;;;;;;;;1.00;1.00;;;;;34.76;36.25;101379.50;4901730;28;55096;-59
2023/08/19 12:35:55;;;;;;;;;0.50;0.50;;;;;34.96;36.21;101382.31;4902651;28;45366;-59
2023/08/19 12:38:21;;;;;;;;;3.00;2.00;;;;;35.14;35.08;101376.91;4902210;28;45368;-59
2023/08/19 12:40:47;;;;;;;;;0.00;0.00;;;;;35.36;35.34;101391.50;4916742;28;45365;-59
2023/08/19 12:43:13;;;;;;;;;3.00;1.00;;;;;35.40;34.96;101398.34;4902604;28;45596;-60
2023/08/19 12:45:41;;;;;;;;;1.25;1.25;;;;;35.36;34.91;101395.16;4902548;28;45380;-59
2023/08/19 12:48:07;;;;;;;;;0.25;0.25;;;;;35.69;34.53;101397.00;4901806;28;46370;-59
2023/08/19 12:50:33;;;;;;;;;1.00;1.00;;;;;35.88;33.90;101396.13;4902400;28;45266;-58
2023/08/19 12:52:59;;;;;;;;;3.00;1.50;;;;;36.09;33.73;101398.59;4902423;28;45639;-58
2023/08/19 12:55:26;;;;;;;;;1.00;1.00;;;;;36.11;34.11;101396.44;4902294;28;45513;-59
2023/08/19 12:57:54;;;;;;;;;1.50;1.50;;;;;35.99;33.96;101398.19;4902342;29;45336;-60
2023/08/19 13:00:21;;;;;;;;;1.00;1.00;;;;;36.09;33.19;101384.63;4902264;28;45319;-59
2023/08/19 13:02:46;;;;;;;;;1.00;1.00;;;;;36.37;33.63;101381.50;4902071;28;45442;-59
2023/08/19 13:05:11;;;;;;;;;1.00;1.00;;;;;36.50;33.12;101386.13;4901741;29;49577;-59
2023/08/19 13:07:37;;;;;;;;;1.25;1.00;;;;;36.64;32.98;101384.97;4902107;28;46147;-59
2023/08/19 13:10:05;;;;;;;;;1.75;1.75;;;;;36.82;32.35;101382.28;4902374;28;46119;-59
2023/08/19 13:12:31;;;;;;;;;1.00;1.00;;;;;36.86;32.45;101383.53;4902363;29;45504;-59
2023/08/19 13:14:57;;;;;;;;;1.75;1.00;;;;;37.07;32.01;101385.94;4902096;29;45364;-58
2023/08/19 13:17:23;;;;;;;;;1.00;1.00;;;;;37.07;32.18;101382.28;4901867;29;45332;-58
2023/08/19 13:19:54;;;;;;;;;1.00;1.00;;;;;37.26;32.22;101380.41;4901734;28;45514;-58
2023/08/19 13:22:21;;;;;;;;;2.00;2.00;;;;;37.41;32.67;101378.09;4902333;28;45396;-58
2023/08/19 13:24:47;;;;;;;;;2.00;2.00;;;;;37.48;33.17;101382.53;4901784;28;45566;-59
2023/08/19 13:27:12;;;;;;;;;2.00;2.00;;;;;37.53;33.13;101392.16;4908637;28;45685;-58
2023/08/19 13:29:38;;;;;;;;;2.75;2.75;;;;;37.67;32.96;101383.41;4906997;28;50195;-60
2023/08/19 13:32:03;;;;;;;;;1.00;1.00;;;;;37.82;32.78;101383.88;4902280;28;45748;-59
2023/08/19 13:34:29;;;;;;;;;2.25;2.00;;;;;37.69;32.97;101385.97;4901333;28;45438;-59
2023/08/19 13:36:54;;;;;;;;;3.50;2.25;;;;;37.94;32.33;101378.31;4902196;28;45396;-58
2023/08/19 13:39:19;;;;;;;;;3.75;2.00;;;;;38.05;32.47;101362.69;4901932;29;45381;-58
2023/08/19 13:41:45;;;;;;;;;2.00;2.00;;;;;38.11;31.58;101370.19;4902041;29;45371;-58
2023/08/19 13:44:10;;;;;;;;;2.75;1.75;;;;;38.03;32.09;101373.25;4904027;29;45541;-58
2023/08/19 13:46:35;;;;;;;;;2.25;2.25;;;;;38.02;32.32;101372.44;4905102;28;48802;-59
2023/08/19 13:49:01;;;;;;;;;2.75;2.75;;;;;38.17;32.76;101381.28;4904210;29;58009;-59
2023/08/19 13:51:27;;;;;;;;;2.25;1.00;;;;;38.26;32.51;101373.41;4920028;28;45344;-59
2023/08/19 13:53:52;;;;;;;;;1.75;1.75;;;;;38.38;33.08;101387.44;4904919;28;45546;-59
2023/08/19 13:56:17;;;;;;;;;1.25;1.25;;;;;38.37;32.81;101377.31;4904934;29;54314;-58
2023/08/19 13:58:43;;;;;;;;;3.00;3.00;;;;;38.50;32.67;101374.34;4904962;28;45389;-57
2023/08/19 14:01:10;;;;;;;;;2.75;2.75;;;;;38.75;32.45;101380.66;4905074;28;45352;-58
2023/08/19 14:03:35;;;;;;;;;2.00;2.00;;;;;38.80;32.35;101379.91;4904668;29;45247;-57
2023/08/19 14:06:02;;;;;;;;;3.00;3.00;;;;;39.04;32.35;101370.47;4904329;29;63134;-60
2023/08/19 14:08:27;;;;;;;;;2.00;2.00;;;;;39.04;31.90;101361.22;4903544;28;45458;-58
2023/08/19 14:10:52;;;;;;;;;2.00;2.00;;;;;39.20;31.43;101366.09;4905180;28;45308;-58
2023/08/19 14:13:18;;;;;;;;;2.00;2.00;;;;;38.71;31.55;101370.16;4904795;29;45276;-58
2023/08/19 14:15:44;;;;;;;;;1.50;1.50;;;;;39.02;31.27;101371.81;4904810;28;46242;-59
2023/08/19 14:18:09;;;;;;;;;2.00;2.00;;;;;39.32;31.13;101366.91;4904647;28;45371;-59
2023/08/19 14:20:35;;;;;;;;;2.75;2.75;;;;;39.41;30.55;101371.09;4908949;28;45333;-59
2023/08/19 14:23:00;;;;;;;;;2.25;2.25;;;;;39.47;30.51;101374.91;4923647;28;45389;-59
2023/08/19 14:25:27;;;;;;;;;1.25;1.25;;;;;39.63;30.90;101368.50;4937912;28;45367;-59
2023/08/19 14:27:52;;;;;;;;;2.00;2.00;;;;;39.58;30.05;101371.19;4924502;28;45477;-59
2023/08/19 14:30:18;;;;;;;;;3.00;2.00;;;;;39.81;30.06;101378.72;4904919;28;45347;-59
2023/08/19 14:32:43;;;;;;;;;1.75;1.75;;;;;40.08;29.80;101377.06;4904217;28;45541;-59
2023/08/19 14:35:08;;;;;;;;;1.75;1.75;;;;;40.26;29.05;101370.41;4903956;29;54704;-59
2023/08/19 14:37:34;;;;;;;;;1.00;1.00;;;;;40.36;28.18;101374.28;4904592;28;45345;-59
2023/08/19 14:39:59;;;;;;;;;1.25;1.25;;;;;40.54;28.60;101361.13;4904607;28;45320;-58
2023/08/19 14:42:24;;;;;;;;;1.00;1.00;;;;;40.84;28.42;101350.41;4904328;28;45244;-58
2023/08/19 14:44:50;;;;;;;;;1.67;1.33;;;;;41.15;27.87;101361.09;4904287;28;45585;-59
2023/08/19 14:47:16;;;;;;;;;1.00;1.00;;;;;41.28;27.22;101365.50;4903872;28;45350;-59
2023/08/19 14:49:41;;;;;;;;;0.33;0.33;;;;;41.14;26.58;101365.00;4904019;28;45169;-59
2023/08/19 14:52:06;;;;;;;;;1.00;1.00;;;;;40.75;27.08;101369.66;4904303;28;45382;-58
2023/08/19 14:54:32;;;;;;;;;0.00;0.00;;;;;40.70;26.90;101365.94;4903798;29;46212;-60
2023/08/19 14:56:57;;;;;;;;;0.33;0.33;;;;;40.96;26.62;101353.16;4904463;29;45454;-58
2023/08/19 14:59:23;;;;;;;;;0.00;0.00;;;;;41.32;26.67;101361.06;4904289;28;45325;-59
2023/08/19 15:01:48;;;;;;;;;0.00;0.00;;;;;41.23;27.02;101351.34;4904283;28;45476;-59
2023/08/19 15:04:13;;;;;;;;;0.00;0.00;;;;;41.18;26.50;101360.56;4903664;28;46196;-59
2023/08/19 15:06:38;;;;;;;;;0.00;0.00;;;;;41.45;26.72;101357.88;4904009;28;45332;-59
2023/08/19 15:09:05;;;;;;;;;0.00;0.00;;;;;41.60;27.37;101368.50;4903819;29;47397;-59
2023/08/19 15:11:39;;;;;;;;;1.00;1.00;;;;;41.88;26.94;101361.84;4902298;29;45507;-59
2023/08/19 15:14:06;;;;;;;;;1.50;0.00;;;;;42.30;26.89;101359.25;4903657;28;45379;-59
2023/08/19 15:16:31;;;;;;;;;1.25;1.25;;;;;42.74;26.09;101356.31;4903719;28;45332;-59
2023/08/19 15:18:57;;;;;;;;;2.00;0.50;;;;;42.88;25.18;101361.25;4903218;29;48984;-59
2023/08/19 15:21:22;;;;;;;;;1.67;0.67;;;;;43.19;25.23;101359.56;4914303;28;46022;-60
2023/08/19 15:23:48;;;;;;;;;1.00;1.00;;;;;43.58;23.49;101356.41;4922592;28;45355;-58
2023/08/19 15:26:13;;;;;;;;;0.00;0.00;;;;;43.67;23.77;101364.09;4922748;28;45437;-58
2023/08/19 15:28:38;;;;;;;;;2.67;1.67;;;;;43.47;23.53;101352.66;4916670;28;50570;-59
2023/08/19 15:31:03;;;;;;;;;1.00;1.00;;;;;44.00;23.70;101354.34;4903184;29;56399;-60
2023/08/19 15:33:29;;;;;;;;;1.00;1.00;;;;;44.31;23.62;101354.44;4901632;29;51279;-59
2023/08/19 15:35:54;;;;;;;;;1.00;1.00;;;;;44.74;22.95;101359.63;4903597;28;45316;-59
2023/08/19 15:38:20;;;;;;;;;1.25;1.25;;;;;45.37;22.65;101350.78;4903229;29;50813;-59
2023/08/19 15:40:46;;;;;;;;;1.50;1.50;;;;;45.88;22.27;101359.97;4903081;28;45280;-60
2023/08/19 15:43:12;;;;;;;;;1.00;1.00;;;;;45.75;22.07;101363.44;4903415;28;45317;-59
2023/08/19 15:45:37;;;;;;;;;3.00;2.00;;;;;45.88;21.49;101363.66;4903012;29;53618;-59
2023/08/19 15:48:03;;;;;;;;;0.50;0.50;;;;;45.99;21.59;101358.81;4903163;28;45158;-59
2023/08/19 15:50:28;;;;;;;;;0.25;0.25;;;;;46.06;21.64;101358.47;4903041;28;45501;-60